ADDS METAR Data INFO
IDs: Format: Raw Decoded Include TAF

Data at: 0904 UTC 20 Oct 2017

KMEZ 200855Z AUTO 00000KT 10SM CLR 09/08 A3018 RMK AO2
KMEZ 200835Z AUTO 00000KT 3SM CLR 10/09 A3018 RMK AO2
KMEZ 200815Z AUTO 00000KT 10SM CLR 10/09 A3018 RMK AO2
KMEZ 200755Z AUTO 00000KT 10SM CLR 10/10 A3018 RMK AO2
KMEZ 200735Z AUTO 00000KT 5SM CLR 10/10 A3018 RMK AO2
KMEZ 200715Z AUTO 00000KT 7SM CLR 10/10 A3018 RMK AO2
KMEZ 200655Z AUTO 00000KT 7SM CLR 11/11 A3018 RMK AO2
KMEZ 200635Z AUTO 00000KT 10SM CLR 11/10 A3018 RMK AO2
KMEZ 200615Z AUTO 00000KT 10SM CLR 11/11 A3018 RMK AO2
KMEZ 200555Z AUTO 00000KT 10SM CLR 11/11 A3018 RMK AO2
KMEZ 200535Z AUTO 00000KT 10SM CLR 11/11 A3018 RMK AO2
KMEZ 200515Z AUTO 00000KT 10SM CLR 11/11 A3018 RMK AO2
KMEZ 200455Z AUTO 00000KT 10SM CLR 11/10 A3018 RMK AO2
KMEZ 200435Z AUTO 00000KT 10SM CLR 12/11 A3019 RMK AO2
KMEZ 200355Z AUTO 00000KT 10SM CLR 11/11 A3018 RMK AO2
KMEZ 200335Z AUTO 00000KT 7SM CLR 11/11 A3018 RMK AO2
KMEZ 200315Z AUTO 00000KT 10SM CLR 12/12 A3017 RMK AO2
KMEZ 200255Z AUTO 00000KT 7SM CLR 13/12 A3017 RMK AO2
KMEZ 200235Z AUTO 00000KT 7SM CLR 13/12 A3017 RMK AO2
KMEZ 200215Z AUTO 00000KT 7SM CLR 14/12 A3016 RMK AO2
KMEZ 200155Z AUTO 00000KT 7SM CLR 15/12 A3016 RMK AO2
KMEZ 200135Z AUTO 00000KT 7SM CLR 15/12 A3016 RMK AO2
KMEZ 200115Z AUTO 00000KT 10SM CLR 16/11 A3016 RMK AO2 TSNO
KMEZ 200055Z AUTO 00000KT 10SM CLR 17/11 A3016 RMK AO2 TSNO
KMEZ 200035Z AUTO 00000KT 10SM CLR 17/12 A3015 RMK AO2
KMEZ 200015Z AUTO 00000KT 10SM CLR 18/12 A3015 RMK AO2 TSNO
KMEZ 192355Z AUTO 00000KT 10SM CLR 21/11 A3015 RMK AO2
KMEZ 192335Z AUTO 00000KT 10SM CLR 22/11 A3015 RMK AO2
KMEZ 192315Z AUTO 00000KT 10SM CLR 23/11 A3015 RMK AO2
KMEZ 192255Z AUTO 00000KT 10SM CLR 26/10 A3015 RMK AO2
KMEZ 192235Z AUTO 00000KT 10SM CLR 26/09 A3015 RMK AO2
KMEZ 192215Z AUTO 00000KT 10SM CLR 27/08 A3015 RMK AO2
KMEZ 192155Z AUTO 00000KT 10SM CLR 27/07 A3015 RMK AO2
KMEZ 192135Z AUTO 13005KT 10SM CLR 27/10 A3015 RMK AO2
KMEZ 192115Z AUTO 11004KT 10SM CLR 28/09 A3015 RMK AO2 TSNO
KMEZ 192055Z AUTO 00000KT 10SM CLR 27/09 A3015 RMK AO2
KMEZ 192035Z AUTO 00000KT 10SM CLR 27/08 A3016 RMK AO2
KMEZ 192015Z AUTO 00000KT 10SM CLR 27/11 A3016 RMK AO2
KMEZ 191955Z AUTO 00000KT 10SM CLR 27/11 A3016 RMK AO2
KMEZ 191935Z AUTO 00000KT 10SM CLR 27/11 A3017 RMK AO2
KMEZ 191915Z AUTO 00000KT 10SM CLR 26/11 A3018 RMK AO2
KMEZ 191855Z AUTO 00000KT 10SM CLR 26/12 A3018 RMK AO2
KMEZ 191835Z AUTO 00000KT 10SM CLR 25/12 A3019 RMK AO2
KMEZ 191815Z AUTO 00000KT 10SM CLR 25/12 A3020 RMK AO2
KMEZ 191755Z AUTO 00000KT 10SM CLR 25/12 A3021 RMK AO2
KMEZ 191735Z AUTO 00000KT 10SM CLR 24/13 A3022 RMK AO2
KMEZ 191715Z AUTO 00000KT 10SM CLR 23/13 A3023 RMK AO2
KMEZ 191655Z AUTO 25003KT 10SM CLR 23/13 A3023 RMK AO2
KMEZ 191635Z AUTO 00000KT 10SM CLR 23/13 A3023 RMK AO2
KMEZ 191615Z AUTO 00000KT 10SM CLR 22/13 A3023 RMK AO2 TSNO
KMEZ 191555Z AUTO 20003KT 10SM CLR 23/13 A3024 RMK AO2
KMEZ 191535Z AUTO 00000KT 10SM CLR 21/16 A3024 RMK AO2
KMEZ 191515Z AUTO 00000KT 10SM CLR 20/16 A3024 RMK AO2 TSNO
KMEZ 191455Z AUTO 00000KT 10SM CLR 17/16 A3024 RMK AO2
KMEZ 191435Z AUTO 00000KT 10SM CLR 16/16 A3023 RMK AO2
KMEZ 191415Z AUTO 00000KT 10SM CLR 15/14 A3023 RMK AO2
KMEZ 191355Z AUTO 00000KT 10SM CLR 13/12 A3022 RMK AO2
KMEZ 191335Z AUTO 00000KT 10SM CLR 13/12 A3021 RMK AO2
KMEZ 191315Z AUTO 00000KT 10SM CLR 12/11 A3021 RMK AO2
KMEZ 191255Z AUTO 00000KT 7SM CLR 11/11 A3021 RMK AO2
KMEZ 191235Z AUTO 00000KT 10SM CLR 10/10 A3020 RMK AO2
KMEZ 191215Z AUTO 00000KT 7SM CLR 10/10 A3020 RMK AO2
KMEZ 191155Z AUTO 00000KT 7SM CLR 11/10 A3020 RMK AO2
KMEZ 191135Z AUTO 00000KT 7SM CLR 10/10 A3020 RMK AO2
KMEZ 191115Z AUTO 00000KT 7SM CLR 10/10 A3020 RMK AO2
KMEZ 191055Z AUTO 00000KT 10SM CLR 10/10 A3020 RMK AO2
KMEZ 191035Z AUTO 00000KT 10SM CLR 11/10 A3019 RMK AO2
KMEZ 191015Z AUTO 00000KT 10SM CLR 11/11 A3018 RMK AO2
KMEZ 190955Z AUTO 00000KT 10SM CLR 12/11 A3018 RMK AO2
KMEZ 190935Z AUTO 00000KT 10SM CLR 12/11 A3018 RMK AO2
KMEZ 190915Z AUTO 00000KT 10SM CLR 13/13 A3017 RMK AO2
KMEZ 190855Z AUTO 00000KT 10SM CLR 13/12 A3017 RMK AO2
KMEZ 190835Z AUTO 00000KT 10SM CLR 14/13 A3017 RMK AO2
KMEZ 190815Z AUTO 00000KT 10SM CLR 16/13 A3017 RMK AO2
KMEZ 190755Z AUTO 00000KT 10SM CLR 09/08 A3017 RMK AO2
KMEZ 190735Z AUTO 00000KT 10SM CLR 09/08 A3017 RMK AO2
KMEZ 190715Z AUTO 00000KT 10SM CLR 10/09 A3017 RMK AO2
KMEZ 190655Z AUTO 00000KT 10SM CLR 11/11 A3017 RMK AO2
KMEZ 190635Z AUTO 00000KT 10SM CLR 10/10 A3016 RMK AO2
KMEZ 190615Z AUTO 00000KT 10SM CLR 10/10 A3016 RMK AO2
KMEZ 190555Z AUTO 00000KT 10SM CLR 10/10 A3017 RMK AO2
KMEZ 190535Z AUTO 00000KT 10SM CLR 10/10 A3017 RMK AO2
KMEZ 190515Z AUTO 00000KT 10SM CLR 10/10 A3017 RMK AO2
KMEZ 190455Z AUTO 00000KT 10SM CLR 11/10 A3017 RMK AO2
KMEZ 190435Z AUTO 00000KT 10SM CLR 10/10 A3018 RMK AO2
KMEZ 190415Z AUTO 00000KT 10SM CLR 10/10 A3017 RMK AO2
KMEZ 190355Z AUTO 00000KT 10SM CLR 10/10 A3017 RMK AO2
KMEZ 190335Z AUTO 00000KT 10SM CLR 12/11 A3017 RMK AO2
KMEZ 190315Z AUTO 29003KT 10SM CLR 11/10 A3017 RMK AO2
KMEZ 190255Z AUTO 00000KT 10SM CLR 11/10 A3017 RMK AO2
KMEZ 190235Z AUTO 00000KT 10SM CLR 12/10 A3016 RMK AO2
KMEZ 190215Z AUTO 00000KT 10SM CLR 12/10 A3016 RMK AO2
KMEZ 190155Z AUTO 00000KT 10SM CLR 13/09 A3016 RMK AO2
KMEZ 190135Z AUTO 00000KT 10SM CLR 13/10 A3016 RMK AO2
KMEZ 190115Z AUTO 27004KT 10SM CLR 13/08 A3016 RMK AO2
KMEZ 190055Z AUTO 00000KT 10SM CLR 17/08 A3016 RMK AO2
KMEZ 190035Z AUTO 00000KT 10SM CLR 17/08 A3015 RMK AO2
KMEZ 190015Z AUTO 00000KT 10SM CLR 20/08 A3015 RMK AO2 TSNO
KMEZ 182355Z AUTO 00000KT 10SM CLR 21/08 A3014 RMK AO2
KMEZ 182335Z AUTO 00000KT 10SM CLR 23/07 A3014 RMK AO2
KMEZ 182315Z AUTO 00000KT 10SM CLR 25/06 A3013 RMK AO2
KMEZ 182255Z AUTO 00000KT 10SM CLR 25/07 A3014 RMK AO2
KMEZ 182235Z AUTO 16003KT 10SM CLR 26/07 A3013 RMK AO2
KMEZ 182215Z AUTO 00000KT 10SM CLR 27/06 A3013 RMK AO2
KMEZ 182155Z AUTO 00000KT 10SM CLR 27/05 A3012 RMK AO2
KMEZ 182135Z AUTO 00000KT 10SM CLR 27/04 A3013 RMK AO2
KMEZ 182115Z AUTO 00000KT 10SM CLR 27/05 A3013 RMK AO2